sensor_id;sensor_type;location;lat;lon;timestamp;pressure;altitude;pressure_sealevel;temperature;humidity
63552;BME280;49698;48.072;7.800;2023-08-17T00:01:31;99431.56;;;20.66;98.54
63552;BME280;49698;48.072;7.800;2023-08-17T00:04:00;99432.25;;;20.63;98.80
63552;BME280;49698;48.072;7.800;2023-08-17T00:06:29;99434.56;;;20.61;99.08
63552;BME280;49698;48.072;7.800;2023-08-17T00:08:57;99434.09;;;20.59;99.25
63552;BME280;49698;48.072;7.800;2023-08-17T00:11:25;99429.78;;;20.58;99.17
63552;BME280;49698;48.072;7.800;2023-08-17T00:13:58;99430.47;;;20.55;99.27
63552;BME280;49698;48.072;7.800;2023-08-17T00:16:26;99431.63;;;20.54;99.50
63552;BME280;49698;48.072;7.800;2023-08-17T00:18:55;99432.00;;;20.52;99.55
63552;BME280;49698;48.072;7.800;2023-08-17T00:21:23;99432.69;;;20.49;99.68
63552;BME280;49698;48.072;7.800;2023-08-17T00:23:52;99425.94;;;20.47;99.96
63552;BME280;49698;48.072;7.800;2023-08-17T00:26:21;99429.34;;;20.44;100.00
63552;BME280;49698;48.072;7.800;2023-08-17T00:28:49;99428.47;;;20.40;100.00
63552;BME280;49698;48.072;7.800;2023-08-17T00:31:20;99425.31;;;20.38;100.00
63552;BME280;49698;48.072;7.800;2023-08-17T00:33:52;99430.31;;;20.36;100.00
63552;BME280;49698;48.072;7.800;2023-08-17T00:36:21;99418.16;;;20.33;100.00
63552;BME280;49698;48.072;7.800;2023-08-17T00:38:55;99408.72;;;20.31;100.00
63552;BME280;49698;48.072;7.800;2023-08-17T00:41:24;99412.13;;;20.27;100.00
63552;BME280;49698;48.072;7.800;2023-08-17T00:43:53;99416.72;;;20.23;100.00
63552;BME280;49698;48.072;7.800;2023-08-17T00:46:24;99418.19;;;20.21;100.00
63552;BME280;49698;48.072;7.800;2023-08-17T00:48:55;99419.69;;;20.18;100.00
63552;BME280;49698;48.072;7.800;2023-08-17T00:51:26;99421.53;;;20.14;100.00
63552;BME280;49698;48.072;7.800;2023-08-17T00:53:58;99419.91;;;20.13;100.00
63552;BME280;49698;48.072;7.800;2023-08-17T00:56:27;99421.06;;;20.12;100.00
63552;BME280;49698;48.072;7.800;2023-08-17T00:58:56;99424.47;;;20.09;100.00
63552;BME280;49698;48.072;7.800;2023-08-17T01:01:24;99425.19;;;20.06;100.00
63552;BME280;49698;48.072;7.800;2023-08-17T01:03:52;99424.38;;;20.06;100.00
63552;BME280;49698;48.072;7.800;2023-08-17T01:06:20;99432.91;;;20.04;100.00
63552;BME280;49698;48.072;7.800;2023-08-17T01:08:49;99428.13;;;20.01;100.00
63552;BME280;49698;48.072;7.800;2023-08-17T01:11:23;99432.81;;;20.00;100.00
63552;BME280;49698;48.072;7.800;2023-08-17T01:13:55;99424.50;;;19.97;100.00
63552;BME280;49698;48.072;7.800;2023-08-17T01:16:26;99423.28;;;19.94;100.00
63552;BME280;49698;48.072;7.800;2023-08-17T01:18:58;99428.75;;;19.94;100.00
63552;BME280;49698;48.072;7.800;2023-08-17T01:21:32;99426.34;;;19.93;100.00
63552;BME280;49698;48.072;7.800;2023-08-17T01:24:08;99423.63;;;19.93;100.00
63552;BME280;49698;48.072;7.800;2023-08-17T01:26:36;99428.28;;;19.92;100.00
63552;BME280;49698;48.072;7.800;2023-08-17T01:29:04;99433.38;;;19.94;100.00
63552;BME280;49698;48.072;7.800;2023-08-17T01:31:40;99431.81;;;19.93;100.00
63552;BME280;49698;48.072;7.800;2023-08-17T01:34:19;99431.38;;;19.91;100.00
63552;BME280;49698;48.072;7.800;2023-08-17T01:36:53;99435.22;;;19.90;100.00
63552;BME280;49698;48.072;7.800;2023-08-17T01:39:35;99433.19;;;19.87;100.00
63552;BME280;49698;48.072;7.800;2023-08-17T01:42:21;99433.88;;;19.84;100.00
63552;BME280;49698;48.072;7.800;2023-08-17T01:44:53;99443.19;;;19.83;100.00
63552;BME280;49698;48.072;7.800;2023-08-17T01:47:32;99436.03;;;19.78;100.00
63552;BME280;49698;48.072;7.800;2023-08-17T01:50:21;99440.69;;;19.77;100.00
63552;BME280;49698;48.072;7.800;2023-08-17T01:52:51;99438.31;;;19.76;100.00
63552;BME280;49698;48.072;7.800;2023-08-17T01:55:22;99442.19;;;19.75;100.00
63552;BME280;49698;48.072;7.800;2023-08-17T01:57:54;99434.34;;;19.73;100.00
63552;BME280;49698;48.072;7.800;2023-08-17T02:00:29;99436.63;;;19.71;100.00
63552;BME280;49698;48.072;7.800;2023-08-17T02:02:57;99445.13;;;19.70;100.00
63552;BME280;49698;48.072;7.800;2023-08-17T02:05:29;99430.25;;;19.67;100.00
63552;BME280;49698;48.072;7.800;2023-08-17T02:08:01;99432.53;;;19.65;100.00
63552;BME280;49698;48.072;7.800;2023-08-17T02:10:32;99431.72;;;19.65;100.00
63552;BME280;49698;48.072;7.800;2023-08-17T02:13:00;99437.97;;;19.65;100.00
63552;BME280;49698;48.072;7.800;2023-08-17T02:15:38;99431.72;;;19.65;100.00
63552;BME280;49698;48.072;7.800;2023-08-17T02:18:06;99427.06;;;19.65;100.00
63552;BME280;49698;48.072;7.800;2023-08-17T02:20:35;99424.34;;;19.65;100.00
63552;BME280;49698;48.072;7.800;2023-08-17T02:23:12;99421.19;;;19.63;100.00
63552;BME280;49698;48.072;7.800;2023-08-17T02:25:50;99422.28;;;19.62;100.00
63552;BME280;49698;48.072;7.800;2023-08-17T02:28:22;99421.03;;;19.60;100.00
63552;BME280;49698;48.072;7.800;2023-08-17T02:30:58;99421.03;;;19.60;100.00
63552;BME280;49698;48.072;7.800;2023-08-17T02:33:31;99424.56;;;19.60;100.00
63552;BME280;49698;48.072;7.800;2023-08-17T02:36:09;99413.66;;;19.60;100.00
63552;BME280;49698;48.072;7.800;2023-08-17T02:38:39;99416.38;;;19.60;100.00
63552;BME280;49698;48.072;7.800;2023-08-17T02:41:09;99413.00;;;19.63;100.00
63552;BME280;49698;48.072;7.800;2023-08-17T02:43:37;99411.38;;;19.62;100.00
63552;BME280;49698;48.072;7.800;2023-08-17T02:46:16;99414.91;;;19.63;100.00
63552;BME280;49698;48.072;7.800;2023-08-17T02:48:44;99411.84;;;19.64;100.00
63552;BME280;49698;48.072;7.800;2023-08-17T02:51:15;99410.72;;;19.65;100.00
63552;BME280;49698;48.072;7.800;2023-08-17T02:53:46;99420.03;;;19.64;100.00
63552;BME280;49698;48.072;7.800;2023-08-17T02:56:15;99414.59;;;19.64;100.00
63552;BME280;49698;48.072;7.800;2023-08-17T02:58:44;99415.38;;;19.65;100.00
63552;BME280;49698;48.072;7.800;2023-08-17T03:01:12;99413.00;;;19.63;100.00
63552;BME280;49698;48.072;7.800;2023-08-17T03:03:40;99405.16;;;19.62;100.00
63552;BME280;49698;48.072;7.800;2023-08-17T03:06:11;99404.31;;;19.61;100.00
63552;BME280;49698;48.072;7.800;2023-08-17T03:08:39;99400.34;;;19.59;100.00
63552;BME280;49698;48.072;7.800;2023-08-17T03:11:10;99403.41;;;19.57;100.00
63552;BME280;49698;48.072;7.800;2023-08-17T03:13:45;99397.19;;;19.57;100.00
63552;BME280;49698;48.072;7.800;2023-08-17T03:16:47;99399.56;;;19.58;100.00
63552;BME280;49698;48.072;7.800;2023-08-17T03:23:02;99400.16;;;19.64;100.00
63552;BME280;49698;48.072;7.800;2023-08-17T03:25:34;99401.38;;;19.66;100.00
63552;BME280;49698;48.072;7.800;2023-08-17T03:28:03;99401.84;;;19.68;100.00
63552;BME280;49698;48.072;7.800;2023-08-17T03:30:32;99406.16;;;19.69;100.00
63552;BME280;49698;48.072;7.800;2023-08-17T03:33:01;99398.44;;;19.71;100.00
63552;BME280;49698;48.072;7.800;2023-08-17T03:35:31;99400.47;;;19.74;100.00
63552;BME280;49698;48.072;7.800;2023-08-17T03:37:59;99391.16;;;19.75;100.00
63552;BME280;49698;48.072;7.800;2023-08-17T03:40:27;99395.47;;;19.76;100.00
63552;BME280;49698;48.072;7.800;2023-08-17T03:42:55;99397.41;;;19.76;100.00
63552;BME280;49698;48.072;7.800;2023-08-17T03:45:24;99400.56;;;19.78;100.00
63552;BME280;49698;48.072;7.800;2023-08-17T03:47:53;99392.38;;;19.78;100.00
63552;BME280;49698;48.072;7.800;2023-08-17T03:50:22;99394.69;;;19.76;100.00
63552;BME280;49698;48.072;7.800;2023-08-17T03:52:50;99400.13;;;19.76;100.00
63552;BME280;49698;48.072;7.800;2023-08-17T03:55:18;99400.13;;;19.76;100.00
63552;BME280;49698;48.072;7.800;2023-08-17T03:57:46;99399.34;;;19.75;100.00
63552;BME280;49698;48.072;7.800;2023-08-17T04:00:14;99408.31;;;19.76;100.00
63552;BME280;49698;48.072;7.800;2023-08-17T04:02:43;99411.84;;;19.76;100.00
63552;BME280;49698;48.072;7.800;2023-08-17T04:05:17;99417.28;;;19.76;100.00
63552;BME280;49698;48.072;7.800;2023-08-17T04:07:45;99410.25;;;19.75;100.00
63552;BME280;49698;48.072;7.800;2023-08-17T04:10:14;99412.50;;;19.73;100.00
63552;BME280;49698;48.072;7.800;2023-08-17T04:12:42;99419.13;;;19.72;100.00
63552;BME280;49698;48.072;7.800;2023-08-17T04:15:11;99420.25;;;19.71;100.00
63552;BME280;49698;48.072;7.800;2023-08-17T04:17:38;99427.97;;;19.69;100.00
63552;BME280;49698;48.072;7.800;2023-08-17T04:20:07;99412.28;;;19.66;100.00
63552;BME280;49698;48.072;7.800;2023-08-17T04:22:37;99418.88;;;19.65;100.00
63552;BME280;49698;48.072;7.800;2023-08-17T04:25:05;99422.28;;;19.62;100.00
63552;BME280;49698;48.072;7.800;2023-08-17T04:27:34;99427.97;;;19.57;100.00
63552;BME280;49698;48.072;7.800;2023-08-17T04:30:03;99425.47;;;19.52;100.00
63552;BME280;49698;48.072;7.800;2023-08-17T04:32:39;99423.84;;;19.51;100.00
63552;BME280;49698;48.072;7.800;2023-08-17T04:35:08;99420.69;;;19.49;100.00
63552;BME280;49698;48.072;7.800;2023-08-17T04:37:40;99418.66;;;19.46;100.00
63552;BME280;49698;48.072;7.800;2023-08-17T04:40:09;99419.00;;;19.44;100.00
63552;BME280;49698;48.072;7.800;2023-08-17T04:42:38;99417.75;;;19.42;100.00
63552;BME280;49698;48.072;7.800;2023-08-17T04:45:07;99420.00;;;19.40;100.00
63552;BME280;49698;48.072;7.800;2023-08-17T04:47:39;99418.41;;;19.39;100.00
63552;BME280;49698;48.072;7.800;2023-08-17T04:50:07;99411.38;;;19.38;100.00
63552;BME280;49698;48.072;7.800;2023-08-17T04:52:35;99416.38;;;19.36;100.00
63552;BME280;49698;48.072;7.800;2023-08-17T04:55:06;99410.91;;;19.36;100.00
63552;BME280;49698;48.072;7.800;2023-08-17T04:57:34;99407.41;;;19.35;100.00
63552;BME280;49698;48.072;7.800;2023-08-17T05:00:03;99415.25;;;19.37;100.00
63552;BME280;49698;48.072;7.800;2023-08-17T05:02:35;99414.09;;;19.38;100.00
63552;BME280;49698;48.072;7.800;2023-08-17T05:05:05;99417.63;;;19.38;100.00
63552;BME280;49698;48.072;7.800;2023-08-17T05:07:34;99421.16;;;19.39;100.00
63552;BME280;49698;48.072;7.800;2023-08-17T05:10:02;99423.88;;;19.39;100.00
63552;BME280;49698;48.072;7.800;2023-08-17T05:12:36;99420.34;;;19.38;100.00
63552;BME280;49698;48.072;7.800;2023-08-17T05:15:04;99427.75;;;19.38;100.00
63552;BME280;49698;48.072;7.800;2023-08-17T05:17:33;99421.03;;;19.35;100.00
63552;BME280;49698;48.072;7.800;2023-08-17T05:20:03;99412.84;;;19.35;100.00
63552;BME280;49698;48.072;7.800;2023-08-17T05:22:31;99419.91;;;19.36;100.00
63552;BME280;49698;48.072;7.800;2023-08-17T05:24:59;99416.38;;;19.36;100.00
63552;BME280;49698;48.072;7.800;2023-08-17T05:27:29;99420.69;;;19.37;100.00
63552;BME280;49698;48.072;7.800;2023-08-17T05:29:58;99423.06;;;19.38;100.00
63552;BME280;49698;48.072;7.800;2023-08-17T05:32:26;99422.28;;;19.38;100.00
63552;BME280;49698;48.072;7.800;2023-08-17T05:34:56;99424.34;;;19.41;100.00
63552;BME280;49698;48.072;7.800;2023-08-17T05:37:25;99432.03;;;19.39;100.00
63552;BME280;49698;48.072;7.800;2023-08-17T05:39:53;99430.91;;;19.40;100.00
63552;BME280;49698;48.072;7.800;2023-08-17T05:42:21;99428.19;;;19.40;100.00
63552;BME280;49698;48.072;7.800;2023-08-17T05:44:50;99433.31;;;19.41;100.00
63552;BME280;49698;48.072;7.800;2023-08-17T05:47:19;99432.50;;;19.41;100.00
63552;BME280;49698;48.072;7.800;2023-08-17T05:49:47;99434.78;;;19.39;100.00
63552;BME280;49698;48.072;7.800;2023-08-17T05:52:15;99427.75;;;19.38;100.00
63552;BME280;49698;48.072;7.800;2023-08-17T05:54:43;99435.44;;;19.36;100.00
63552;BME280;49698;48.072;7.800;2023-08-17T05:57:12;99431.13;;;19.35;100.00
63552;BME280;49698;48.072;7.800;2023-08-17T05:59:40;99428.75;;;19.33;100.00
63552;BME280;49698;48.072;7.800;2023-08-17T06:02:08;99433.88;;;19.35;100.00
63552;BME280;49698;48.072;7.800;2023-08-17T06:04:38;99433.06;;;19.34;100.00
63552;BME280;49698;48.072;7.800;2023-08-17T06:07:06;99427.28;;;19.36;100.00
63552;BME280;49698;48.072;7.800;2023-08-17T06:09:34;99426.47;;;19.35;100.00
63552;BME280;49698;48.072;7.800;2023-08-17T06:12:02;99435.91;;;19.38;100.00
63552;BME280;49698;48.072;7.800;2023-08-17T06:14:31;99432.50;;;19.41;100.00
63552;BME280;49698;48.072;7.800;2023-08-17T06:17:00;99433.31;;;19.41;100.00
63552;BME280;49698;48.072;7.800;2023-08-17T06:19:28;99433.31;;;19.41;100.00
63552;BME280;49698;48.072;7.800;2023-08-17T06:21:57;99445.00;;;19.42;100.00
63552;BME280;49698;48.072;7.800;2023-08-17T06:24:26;99445.78;;;19.42;100.00
63552;BME280;49698;48.072;7.800;2023-08-17T06:26:54;99445.00;;;19.42;100.00
63552;BME280;49698;48.072;7.800;2023-08-17T06:29:22;99444.22;;;19.41;100.00
63552;BME280;49698;48.072;7.800;2023-08-17T06:31:50;99452.03;;;19.43;100.00
63552;BME280;49698;48.072;7.800;2023-08-17T06:34:19;99457.59;;;19.46;100.00
63552;BME280;49698;48.072;7.800;2023-08-17T06:36:58;99448.41;;;19.51;100.00
63552;BME280;49698;48.072;7.800;2023-08-17T06:39:27;99453.97;;;19.54;100.00
63552;BME280;49698;48.072;7.800;2023-08-17T06:41:55;99454.75;;;19.55;100.00
63552;BME280;49698;48.072;7.800;2023-08-17T06:44:23;99464.06;;;19.54;100.00
63552;BME280;49698;48.072;7.800;2023-08-17T06:46:51;99460.91;;;19.52;100.00
63552;BME280;49698;48.072;7.800;2023-08-17T06:49:19;99457.72;;;19.50;100.00
63552;BME280;49698;48.072;7.800;2023-08-17T06:51:47;99458.50;;;19.50;100.00
63552;BME280;49698;48.072;7.800;2023-08-17T06:54:17;99457.03;;;19.53;100.00
63552;BME280;49698;48.072;7.800;2023-08-17T06:56:45;99463.41;;;19.57;100.00
63552;BME280;49698;48.072;7.800;2023-08-17T06:59:14;99470.59;;;19.62;100.00
63552;BME280;49698;48.072;7.800;2023-08-17T07:01:42;99474.56;;;19.64;100.00
63552;BME280;49698;48.072;7.800;2023-08-17T07:04:10;99470.03;;;19.68;100.00
63552;BME280;49698;48.072;7.800;2023-08-17T07:06:38;99464.22;;;19.70;100.00
63552;BME280;49698;48.072;7.800;2023-08-17T07:09:07;99466.94;;;19.70;100.00
63552;BME280;49698;48.072;7.800;2023-08-17T07:11:38;99472.28;;;19.66;100.00
63552;BME280;49698;48.072;7.800;2023-08-17T07:14:06;99482.88;;;19.68;100.00
63552;BME280;49698;48.072;7.800;2023-08-17T07:16:34;99481.38;;;19.70;100.00
63552;BME280;49698;48.072;7.800;2023-08-17T07:19:03;99479.09;;;19.72;100.00
63552;BME280;49698;48.072;7.800;2023-08-17T07:21:31;99482.75;;;19.76;100.00
63552;BME280;49698;48.072;7.800;2023-08-17T07:24:11;99485.91;;;19.78;100.00
63552;BME280;49698;48.072;7.800;2023-08-17T07:26:41;99489.09;;;19.81;100.00
63552;BME280;49698;48.072;7.800;2023-08-17T07:29:10;99489.91;;;19.81;100.00
63552;BME280;49698;48.072;7.800;2023-08-17T07:31:38;99493.88;;;19.84;100.00
63552;BME280;49698;48.072;7.800;2023-08-17T07:34:08;99495.09;;;19.86;100.00
63552;BME280;49698;48.072;7.800;2023-08-17T07:36:37;99501.16;;;19.92;100.00
63552;BME280;49698;48.072;7.800;2023-08-17T07:39:05;99502.84;;;19.96;100.00
63552;BME280;49698;48.072;7.800;2023-08-17T07:41:33;99497.84;;;19.98;100.00
63552;BME280;49698;48.072;7.800;2023-08-17T07:44:04;99504.53;;;20.01;100.00
63552;BME280;49698;48.072;7.800;2023-08-17T07:46:32;99502.28;;;20.03;100.00
63552;BME280;49698;48.072;7.800;2023-08-17T07:49:00;99504.31;;;20.06;100.00
63552;BME280;49698;48.072;7.800;2023-08-17T07:51:28;99500.88;;;20.09;100.00
63552;BME280;49698;48.072;7.800;2023-08-17T07:53:58;99517.47;;;20.16;100.00
63552;BME280;49698;48.072;7.800;2023-08-17T07:56:27;99508.25;;;20.21;100.00
63552;BME280;49698;48.072;7.800;2023-08-17T07:58:55;99511.88;;;20.25;100.00
63552;BME280;49698;48.072;7.800;2023-08-17T08:01:24;99506.88;;;20.27;100.00
63552;BME280;49698;48.072;7.800;2023-08-17T08:03:53;99521.69;;;20.26;100.00
63552;BME280;49698;48.072;7.800;2023-08-17T08:06:21;99523.16;;;20.23;100.00
63552;BME280;49698;48.072;7.800;2023-08-17T08:08:49;99520.88;;;20.25;100.00
63552;BME280;49698;48.072;7.800;2023-08-17T08:11:17;99521.91;;;20.33;100.00
63552;BME280;49698;48.072;7.800;2023-08-17T08:13:45;99525.63;;;20.41;100.00
63552;BME280;49698;48.072;7.800;2023-08-17T08:16:13;99530.38;;;20.44;100.00
63552;BME280;49698;48.072;7.800;2023-08-17T08:18:43;99533.22;;;20.47;100.00
63552;BME280;49698;48.072;7.800;2023-08-17T08:21:11;99529.47;;;20.52;100.00
63552;BME280;49698;48.072;7.800;2023-08-17T08:23:39;99528.09;;;20.58;100.00
63552;BME280;49698;48.072;7.800;2023-08-17T08:26:07;99532.19;;;20.64;100.00
63552;BME280;49698;48.072;7.800;2023-08-17T08:28:35;99533.09;;;20.68;100.00
63552;BME280;49698;48.072;7.800;2023-08-17T08:31:04;99531.25;;;20.72;100.00
63552;BME280;49698;48.072;7.800;2023-08-17T08:33:32;99547.38;;;20.77;100.00
63552;BME280;49698;48.072;7.800;2023-08-17T08:36:01;99544.75;;;20.81;100.00
63552;BME280;49698;48.072;7.800;2023-08-17T08:38:29;99533.94;;;20.85;100.00
63552;BME280;49698;48.072;7.800;2023-08-17T08:40:58;99530.94;;;20.90;100.00
63552;BME280;49698;48.072;7.800;2023-08-17T08:43:26;99527.50;;;20.93;100.00
63552;BME280;49698;48.072;7.800;2023-08-17T08:45:54;99533.88;;;20.97;100.00
63552;BME280;49698;48.072;7.800;2023-08-17T08:48:26;99525.41;;;21.02;100.00
63552;BME280;49698;48.072;7.800;2023-08-17T08:50:55;99530.19;;;21.05;100.00
63552;BME280;49698;48.072;7.800;2023-08-17T08:53:29;99528.34;;;21.09;100.00
63552;BME280;49698;48.072;7.800;2023-08-17T08:56:03;99527.28;;;21.14;100.00
63552;BME280;49698;48.072;7.800;2023-08-17T08:58:31;99528.16;;;21.18;100.00
63552;BME280;49698;48.072;7.800;2023-08-17T09:01:02;99529.97;;;21.26;100.00
63552;BME280;49698;48.072;7.800;2023-08-17T09:03:35;99529.47;;;21.36;100.00
63552;BME280;49698;48.072;7.800;2023-08-17T09:06:03;99522.13;;;21.40;100.00
63552;BME280;49698;48.072;7.800;2023-08-17T09:08:33;99519.94;;;21.46;100.00
63552;BME280;49698;48.072;7.800;2023-08-17T09:11:02;99520.38;;;21.48;100.00
63552;BME280;49698;48.072;7.800;2023-08-17T09:13:30;99508.03;;;21.54;100.00
63552;BME280;49698;48.072;7.800;2023-08-17T09:15:59;99519.16;;;21.61;99.58
63552;BME280;49698;48.072;7.800;2023-08-17T09:18:34;99518.88;;;21.66;98.83
63552;BME280;49698;48.072;7.800;2023-08-17T09:21:04;99515.06;;;21.71;98.53
63552;BME280;49698;48.072;7.800;2023-08-17T09:23:34;99503.88;;;21.76;98.72
63552;BME280;49698;48.072;7.800;2023-08-17T09:26:08;99509.94;;;21.85;97.92
63552;BME280;49698;48.072;7.800;2023-08-17T09:28:39;99503.56;;;21.97;97.55
63552;BME280;49698;48.072;7.800;2023-08-17T09:31:07;99510.50;;;22.10;96.87
63552;BME280;49698;48.072;7.800;2023-08-17T09:33:35;99511.22;;;22.23;96.12
63552;BME280;49698;48.072;7.800;2023-08-17T09:36:03;99516.50;;;22.32;95.41
63552;BME280;49698;48.072;7.800;2023-08-17T09:38:31;99514.63;;;22.36;95.03
63552;BME280;49698;48.072;7.800;2023-08-17T09:41:00;99510.81;;;22.40;94.79
63552;BME280;49698;48.072;7.800;2023-08-17T09:43:28;99508.22;;;22.48;94.37
63552;BME280;49698;48.072;7.800;2023-08-17T09:46:00;99504.09;;;22.57;94.05
63552;BME280;49698;48.072;7.800;2023-08-17T09:48:30;99509.72;;;22.64;93.64
63552;BME280;49698;48.072;7.800;2023-08-17T09:50:58;99504.38;;;22.71;93.15
63552;BME280;49698;48.072;7.800;2023-08-17T09:53:28;99498.69;;;22.80;92.79
63552;BME280;49698;48.072;7.800;2023-08-17T09:55:57;99497.31;;;22.90;91.65
63552;BME280;49698;48.072;7.800;2023-08-17T09:58:28;99497.09;;;22.99;91.22
63552;BME280;49698;48.072;7.800;2023-08-17T10:00:57;99494.88;;;23.04;91.01
63552;BME280;49698;48.072;7.800;2023-08-17T10:03:27;99494.13;;;23.07;90.67
63552;BME280;49698;48.072;7.800;2023-08-17T10:05:59;99491.09;;;23.12;90.53
63552;BME280;49698;48.072;7.800;2023-08-17T10:08:30;99489.63;;;23.18;90.42
63552;BME280;49698;48.072;7.800;2023-08-17T10:11:02;99480.94;;;23.36;89.90
63552;BME280;49698;48.072;7.800;2023-08-17T10:13:38;99480.19;;;23.62;89.15
63552;BME280;49698;48.072;7.800;2023-08-17T10:16:14;99480.97;;;23.89;87.86
63552;BME280;49698;48.072;7.800;2023-08-17T10:18:50;99480.44;;;24.06;86.65
63552;BME280;49698;48.072;7.800;2023-08-17T10:21:23;99477.94;;;24.24;85.99
63552;BME280;49698;48.072;7.800;2023-08-17T10:23:56;99472.66;;;24.38;85.09
63552;BME280;49698;48.072;7.800;2023-08-17T10:26:30;99467.72;;;24.51;84.57
63552;BME280;49698;48.072;7.800;2023-08-17T10:29:02;99461.22;;;24.67;83.88
63552;BME280;49698;48.072;7.800;2023-08-17T10:31:34;99460.59;;;24.84;83.09
63552;BME280;49698;48.072;7.800;2023-08-17T10:34:03;99461.59;;;25.02;82.50
63552;BME280;49698;48.072;7.800;2023-08-17T10:36:32;99450.75;;;25.20;81.75
63552;BME280;49698;48.072;7.800;2023-08-17T10:39:23;99454.09;;;25.40;80.99
63552;BME280;49698;48.072;7.800;2023-08-17T10:41:53;99456.56;;;25.56;79.90
63552;BME280;49698;48.072;7.800;2023-08-17T10:44:44;99444.09;;;25.73;79.44
63552;BME280;49698;48.072;7.800;2023-08-17T10:47:22;99434.78;;;25.92;78.61
63552;BME280;49698;48.072;7.800;2023-08-17T10:49:55;99428.19;;;26.10;77.83
63552;BME280;49698;48.072;7.800;2023-08-17T10:52:29;99429.44;;;26.27;76.46
63552;BME280;49698;48.072;7.800;2023-08-17T10:54:59;99434.22;;;26.38;76.33
63552;BME280;49698;48.072;7.800;2023-08-17T10:57:29;99425.16;;;26.44;76.04
63552;BME280;49698;48.072;7.800;2023-08-17T11:00:13;99420.91;;;26.57;75.99
63552;BME280;49698;48.072;7.800;2023-08-17T11:02:52;99414.63;;;26.71;75.63
63552;BME280;49698;48.072;7.800;2023-08-17T11:05:41;99413.06;;;26.81;74.83
63552;BME280;49698;48.072;7.800;2023-08-17T11:08:11;99405.97;;;26.87;74.71
63552;BME280;49698;48.072;7.800;2023-08-17T11:10:48;99392.59;;;26.89;74.05
63552;BME280;49698;48.072;7.800;2023-08-17T11:13:17;99383.13;;;26.94;74.28
63552;BME280;49698;48.072;7.800;2023-08-17T11:15:46;99383.16;;;27.01;74.16
63552;BME280;49698;48.072;7.800;2023-08-17T11:18:15;99382.38;;;27.07;73.78
63552;BME280;49698;48.072;7.800;2023-08-17T11:20:44;99376.84;;;27.22;73.08
63552;BME280;49698;48.072;7.800;2023-08-17T11:23:12;99372.50;;;27.35;72.25
63552;BME280;49698;48.072;7.800;2023-08-17T11:25:41;99365.38;;;27.48;71.96
63552;BME280;49698;48.072;7.800;2023-08-17T11:28:10;99365.78;;;27.58;71.86
63552;BME280;49698;48.072;7.800;2023-08-17T11:30:40;99364.56;;;27.69;71.58
63552;BME280;49698;48.072;7.800;2023-08-17T11:33:14;99367.28;;;27.80;71.26
63552;BME280;49698;48.072;7.800;2023-08-17T11:35:42;99355.44;;;27.90;70.36
63552;BME280;49698;48.072;7.800;2023-08-17T11:38:11;99363.28;;;27.99;69.59
63552;BME280;49698;48.072;7.800;2023-08-17T11:40:39;99362.47;;;28.06;69.15
63552;BME280;49698;48.072;7.800;2023-08-17T11:43:07;99360.47;;;28.13;68.73
63552;BME280;49698;48.072;7.800;2023-08-17T11:45:35;99353.69;;;28.25;68.16
63552;BME280;49698;48.072;7.800;2023-08-17T11:48:04;99353.63;;;28.36;66.94
63552;BME280;49698;48.072;7.800;2023-08-17T11:50:34;99354.41;;;28.43;64.81
63552;BME280;49698;48.072;7.800;2023-08-17T11:53:05;99344.09;;;28.47;63.99
63552;BME280;49698;48.072;7.800;2023-08-17T11:55:34;99339.34;;;28.51;62.50
63552;BME280;49698;48.072;7.800;2023-08-17T11:58:02;99323.50;;;28.59;62.41
63552;BME280;49698;48.072;7.800;2023-08-17T12:00:36;99333.31;;;28.67;61.70
63552;BME280;49698;48.072;7.800;2023-08-17T12:03:04;99332.81;;;28.76;60.62
63552;BME280;49698;48.072;7.800;2023-08-17T12:05:35;99316.19;;;28.83;59.50
63552;BME280;49698;48.072;7.800;2023-08-17T12:08:03;99318.88;;;28.90;58.46
63552;BME280;49698;48.072;7.800;2023-08-17T12:10:31;99307.38;;;28.95;58.77
63552;BME280;49698;48.072;7.800;2023-08-17T12:13:01;99304.59;;;28.99;58.10
63552;BME280;49698;48.072;7.800;2023-08-17T12:15:30;99302.59;;;29.03;57.80
63552;BME280;49698;48.072;7.800;2023-08-17T12:18:03;99308.84;;;29.11;57.13
63552;BME280;49698;48.072;7.800;2023-08-17T12:20:33;99311.19;;;29.16;56.79
63552;BME280;49698;48.072;7.800;2023-08-17T12:23:03;99313.50;;;29.21;56.62
63552;BME280;49698;48.072;7.800;2023-08-17T12:25:31;99320.53;;;29.29;56.12
63552;BME280;49698;48.072;7.800;2023-08-17T12:27:59;99319.63;;;29.39;55.65
63552;BME280;49698;48.072;7.800;2023-08-17T12:30:29;99318.34;;;29.47;55.55
63552;BME280;49698;48.072;7.800;2023-08-17T12:32:58;99315.56;;;29.51;55.46
63552;BME280;49698;48.072;7.800;2023-08-17T12:35:27;99310.88;;;29.44;55.88
63552;BME280;49698;48.072;7.800;2023-08-17T12:37:56;99314.88;;;29.40;55.72
63552;BME280;49698;48.072;7.800;2023-08-17T12:40:24;99311.34;;;29.39;55.35
63552;BME280;49698;48.072;7.800;2023-08-17T12:42:53;99321.25;;;29.37;55.79
63552;BME280;49698;48.072;7.800;2023-08-17T12:45:21;99316.47;;;29.37;55.45
63552;BME280;49698;48.072;7.800;2023-08-17T12:47:53;99314.09;;;29.39;55.22
63552;BME280;49698;48.072;7.800;2023-08-17T12:50:22;99319.22;;;29.41;55.28
63552;BME280;49698;48.072;7.800;2023-08-17T12:52:50;99330.28;;;29.41;54.99
63552;BME280;49698;48.072;7.800;2023-08-17T12:55:19;99325.19;;;29.39;54.42
63552;BME280;49698;48.072;7.800;2023-08-17T12:57:47;99328.38;;;29.34;54.73
63552;BME280;49698;48.072;7.800;2023-08-17T13:00:16;99320.53;;;29.29;55.37
63552;BME280;49698;48.072;7.800;2023-08-17T13:02:44;99328.44;;;29.27;55.61
63552;BME280;49698;48.072;7.800;2023-08-17T13:05:15;99327.69;;;29.23;55.84
63552;BME280;49698;48.072;7.800;2023-08-17T13:07:44;99325.03;;;29.16;55.92
63552;BME280;49698;48.072;7.800;2023-08-17T13:10:12;99328.22;;;29.11;56.18
63552;BME280;49698;48.072;7.800;2023-08-17T13:12:41;99322.34;;;29.05;57.04